createdAt,value
2019-04-19T00:02:07.362Z,4.40
2019-04-19T00:04:33.241Z,4.97
2019-04-19T00:07:12.461Z,4.80
2019-04-19T00:09:49.548Z,5.97
2019-04-19T00:12:24.185Z,6.30
2019-04-19T00:14:39.949Z,5.37
2019-04-19T00:17:13.984Z,4.93
2019-04-19T00:20:12.635Z,5.57
2019-04-19T00:22:29.180Z,4.60
2019-04-19T00:24:43.763Z,5.80
2019-04-19T00:27:13.984Z,4.73
2019-04-19T00:29:53.954Z,4.90
2019-04-19T00:32:28.326Z,4.67
2019-04-19T00:34:46.867Z,5.20
2019-04-19T00:37:16.519Z,5.50
2019-04-19T00:40:10.320Z,5.17
2019-04-19T00:42:57.163Z,4.83
2019-04-19T00:45:41.658Z,5.00
2019-04-19T00:48:19.171Z,5.33
2019-04-19T00:50:48.559Z,5.33
2019-04-19T00:53:20.868Z,6.33
2019-04-19T00:55:48.663Z,5.23
2019-04-19T00:58:17.662Z,4.93
2019-04-19T01:00:40.312Z,4.70
2019-04-19T01:03:13.451Z,5.13
2019-04-19T01:05:50.412Z,5.30
2019-04-19T01:08:18.176Z,5.50
2019-04-19T01:11:02.513Z,5.50
2019-04-19T01:13:35.276Z,5.07
2019-04-19T01:16:01.402Z,4.80
2019-04-19T01:18:31.206Z,5.50
2019-04-19T01:20:50.761Z,5.40
2019-04-19T01:23:21.343Z,5.40
2019-04-19T01:25:55.066Z,5.00
2019-04-19T01:28:25.571Z,5.00
2019-04-19T01:30:54.815Z,5.43
2019-04-19T01:33:35.612Z,5.37
2019-04-19T01:36:04.253Z,5.13
2019-04-19T01:38:43.472Z,5.40
2019-04-19T01:41:20.762Z,5.17
2019-04-19T01:43:58.559Z,5.30
2019-04-19T01:46:49.150Z,5.50
2019-04-19T01:49:31.552Z,5.70
2019-04-19T01:52:13.287Z,5.73
2019-04-19T01:54:44.207Z,5.70
2019-04-19T01:57:00.694Z,5.80
2019-04-19T01:59:35.275Z,5.57
2019-04-19T02:02:03.809Z,5.30
2019-04-19T02:04:33.265Z,5.57
2019-04-19T02:07:06.213Z,5.20
2019-04-19T02:09:48.933Z,4.90
2019-04-19T02:12:18.235Z,5.50
2019-04-19T02:14:44.540Z,5.10
2019-04-19T02:17:09.759Z,5.60
2019-04-19T02:19:38.831Z,5.50
2019-04-19T02:22:17.423Z,5.70
2019-04-19T02:24:45.830Z,5.40
2019-04-19T02:27:16.011Z,5.10
2019-04-19T02:29:49.867Z,5.57
2019-04-19T02:32:30.936Z,5.13
2019-04-19T02:37:39.623Z,5.77
2019-04-19T02:40:46.363Z,5.77
2019-04-19T02:47:44.428Z,5.73
2019-04-19T02:50:20.039Z,5.57
2019-04-19T02:52:55.063Z,5.40
2019-04-19T02:55:41.224Z,5.87
2019-04-19T02:58:06.505Z,5.67
2019-04-19T03:00:58.865Z,5.43
2019-04-19T03:05:53.358Z,5.40
2019-04-19T03:07:59.578Z,6.17
2019-04-19T03:10:31.031Z,5.40
2019-04-19T03:13:18.866Z,5.33
2019-04-19T03:18:37.138Z,5.30
2019-04-19T03:20:46.723Z,5.87
2019-04-19T03:23:18.149Z,5.63
2019-04-19T03:25:47.973Z,5.60
2019-04-19T03:28:18.326Z,6.03
2019-04-19T03:31:08.291Z,6.03
2019-04-19T03:35:59.648Z,5.77
2019-04-19T03:38:35.051Z,6.33
2019-04-19T03:41:02.873Z,6.00
2019-04-19T03:44:10.134Z,6.13
2019-04-19T03:46:18.732Z,6.07
2019-04-19T03:48:51.821Z,7.23
2019-04-19T03:51:28.770Z,5.97
2019-04-19T03:54:00.523Z,6.30
2019-04-19T03:56:33.185Z,6.40
2019-04-19T03:58:44.214Z,6.20
2019-04-19T04:01:14.893Z,6.83
2019-04-19T04:03:47.914Z,6.30
2019-04-19T04:06:22.022Z,6.53
2019-04-19T04:08:55.285Z,5.80
2019-04-19T04:11:31.862Z,6.27
2019-04-19T04:14:19.202Z,6.20
2019-04-19T04:16:58.249Z,5.30
2019-04-19T04:19:29.394Z,6.13
2019-04-19T04:21:58.979Z,6.33
2019-04-19T04:24:34.562Z,5.90
2019-04-19T04:27:07.675Z,5.80
2019-04-19T04:29:38.904Z,6.97
2019-04-19T04:32:12.588Z,5.87
2019-04-19T04:34:45.729Z,6.63
2019-04-19T04:37:20.585Z,6.50
2019-04-19T04:39:36.942Z,7.00
2019-04-19T04:42:16.115Z,6.37
2019-04-19T04:45:04.654Z,6.80
2019-04-19T04:47:43.278Z,6.43
2019-04-19T04:50:49.080Z,7.57
2019-04-19T04:53:03.108Z,7.17
2019-04-19T04:55:37.909Z,7.50
2019-04-19T04:58:18.747Z,6.90
2019-04-19T05:00:47.236Z,6.77
2019-04-19T05:03:32.751Z,7.37
2019-04-19T05:06:05.214Z,7.00
2019-04-19T05:08:33.888Z,7.30
2019-04-19T05:11:03.245Z,6.30
2019-04-19T05:13:33.509Z,6.87
2019-04-19T05:16:06.906Z,6.57
2019-04-19T05:18:34.916Z,6.40
2019-04-19T05:21:10.362Z,7.27
2019-04-19T05:23:43.338Z,6.47
2019-04-19T05:26:26.625Z,7.10
2019-04-19T05:28:43.707Z,7.33
2019-04-19T05:30:59.106Z,6.87
2019-04-19T05:33:36.731Z,6.73
2019-04-19T05:36:19.462Z,6.10
2019-04-19T05:39:12.807Z,7.60
2019-04-19T05:42:10.988Z,6.87
2019-04-19T05:45:10.618Z,6.67
2019-04-19T05:47:23.795Z,8.00
2019-04-19T05:49:56.350Z,7.60
2019-04-19T05:52:32.973Z,6.77
2019-04-19T05:54:42.872Z,6.23
2019-04-19T05:57:31.978Z,6.70
2019-04-19T05:59:53.781Z,6.97
2019-04-19T06:02:24.486Z,6.20
2019-04-19T06:05:13.050Z,6.03
2019-04-19T06:07:38.284Z,6.40
2019-04-19T06:09:49.764Z,6.90
2019-04-19T06:12:23.554Z,6.50
2019-04-19T06:15:13.468Z,7.40
2019-04-19T06:18:00.725Z,7.23
2019-04-19T06:20:30.449Z,8.43
2019-04-19T06:23:07.094Z,6.73
2019-04-19T06:25:49.108Z,6.80
2019-04-19T06:30:50.968Z,6.53
2019-04-19T06:33:15.668Z,7.10
2019-04-19T06:35:36.044Z,6.40
2019-04-19T06:37:57.131Z,6.23
2019-04-19T06:40:31.090Z,5.73
2019-04-19T06:43:07.007Z,6.33
2019-04-19T06:45:45.329Z,6.00
2019-04-19T06:48:07.497Z,6.63
2019-04-19T06:50:36.816Z,6.90
2019-04-19T06:53:03.855Z,5.90
2019-04-19T06:55:38.515Z,6.10
2019-04-19T06:58:13.489Z,6.80
2019-04-19T07:00:49.333Z,5.90
2019-04-19T07:03:10.769Z,6.10
2019-04-19T07:05:49.912Z,6.27
2019-04-19T07:08:51.319Z,5.93
2019-04-19T07:11:08.837Z,6.37
2019-04-19T07:13:27.543Z,6.40
2019-04-19T07:16:08.622Z,5.60
2019-04-19T07:18:29.938Z,5.97
2019-04-19T07:21:07.575Z,6.40
2019-04-19T07:23:42.013Z,6.53
2019-04-19T07:26:09.978Z,7.13
2019-04-19T07:28:26.390Z,6.90
2019-04-19T07:30:58.941Z,6.60
2019-04-19T07:33:37.587Z,6.37
2019-04-19T07:36:11.550Z,7.07
2019-04-19T07:38:46.253Z,7.50
2019-04-19T07:41:18.891Z,6.43
2019-04-19T07:44:00.227Z,7.37
2019-04-19T07:46:38.388Z,6.30
2019-04-19T07:48:51.470Z,7.30
2019-04-19T07:51:28.611Z,6.70
2019-04-19T07:53:54.746Z,6.00
2019-04-19T07:56:38.929Z,6.63
2019-04-19T08:02:04.722Z,6.73
2019-04-19T08:09:25.475Z,6.23
2019-04-19T08:14:39.849Z,5.90
2019-04-19T08:29:28.738Z,5.67
2019-04-19T08:31:45.003Z,5.87
2019-04-19T08:34:20.501Z,5.27
2019-04-19T08:36:53.360Z,5.30
2019-04-19T08:39:39.729Z,4.87
2019-04-19T08:42:10.690Z,5.70
2019-04-19T08:44:35.151Z,5.30
2019-04-19T08:47:33.509Z,5.40
2019-04-19T08:50:13.727Z,5.20
2019-04-19T08:52:50.406Z,5.30
2019-04-19T08:55:34.787Z,5.40
2019-04-19T08:57:53.902Z,6.33
2019-04-19T09:00:46.557Z,6.53
2019-04-19T09:03:02.970Z,5.57
2019-04-19T09:05:34.528Z,5.60
2019-04-19T09:08:12.266Z,5.80
2019-04-19T09:10:40.770Z,5.00
2019-04-19T09:13:22.243Z,5.60
2019-04-19T09:15:38.474Z,4.97
2019-04-19T09:18:33.548Z,4.90
2019-04-19T09:20:51.880Z,5.43
2019-04-19T09:23:20.237Z,4.63
2019-04-19T09:25:48.861Z,4.70
2019-04-19T09:30:58.287Z,4.90
2019-04-19T09:33:22.482Z,5.10
2019-04-19T09:35:53.302Z,4.80
2019-04-19T09:38:26.938Z,4.77
2019-04-19T09:40:55.597Z,4.67
2019-04-19T09:43:31.215Z,5.13
2019-04-19T09:45:51.042Z,4.17
2019-04-19T09:48:36.848Z,4.60
2019-04-19T09:51:07.780Z,4.50
2019-04-19T09:53:48.973Z,4.40
2019-04-19T09:56:21.230Z,4.17
2019-04-19T09:58:42.797Z,4.00
2019-04-19T10:01:08.606Z,4.33
2019-04-19T10:03:44.139Z,4.43
2019-04-19T10:06:10.790Z,4.53
2019-04-19T10:08:41.980Z,4.27
2019-04-19T10:11:12.730Z,3.70
2019-04-19T10:13:42.325Z,4.37
2019-04-19T10:16:36.837Z,4.13
2019-04-19T10:19:08.185Z,4.37
2019-04-19T10:21:45.489Z,4.60
2019-04-19T10:24:19.126Z,4.00
2019-04-19T10:27:01.110Z,3.50
2019-04-19T10:29:35.273Z,3.50
2019-04-19T10:32:20.264Z,3.33
2019-04-19T10:34:50.386Z,3.70
2019-04-19T10:37:21.745Z,4.00
2019-04-19T10:39:51.956Z,4.43
2019-04-19T10:42:22.980Z,3.73
2019-04-19T10:44:54.018Z,3.37
2019-04-19T10:47:26.288Z,3.77
2019-04-19T10:50:11.239Z,3.57
2019-04-19T10:52:27.321Z,4.20
2019-04-19T10:54:59.225Z,4.03
2019-04-19T10:57:29.845Z,4.27
2019-04-19T11:00:03.279Z,4.30
2019-04-19T11:02:34.313Z,3.83
2019-04-19T11:05:07.258Z,3.83
2019-04-19T11:07:39.850Z,3.57
2019-04-19T11:10:09.766Z,4.40
2019-04-19T11:12:40.809Z,3.87
2019-04-19T11:15:12.744Z,3.60
2019-04-19T11:17:43.644Z,3.73
2019-04-19T11:20:25.964Z,4.13
2019-04-19T11:22:45.991Z,3.30
2019-04-19T11:25:16.175Z,3.17
2019-04-19T11:27:49.542Z,3.60
2019-04-19T11:30:42.045Z,4.13
2019-04-19T11:33:19.410Z,3.73
2019-04-19T11:35:53.307Z,3.93
2019-04-19T11:38:23.085Z,3.40
2019-04-19T11:40:53.330Z,3.87
2019-04-19T11:43:22.909Z,3.63
2019-04-19T11:45:53.663Z,3.73
2019-04-19T11:48:24.496Z,3.73
2019-04-19T11:50:55.959Z,4.00
2019-04-19T11:53:30.207Z,3.90
2019-04-19T11:56:27.838Z,4.57
2019-04-19T11:59:02.504Z,3.70
2019-04-19T12:01:34.349Z,3.50
2019-04-19T12:04:04.326Z,2.77
2019-04-19T12:06:34.427Z,3.30
2019-04-19T12:09:06.932Z,3.03
2019-04-19T12:11:38.012Z,2.90
2019-04-19T12:14:08.037Z,3.63
2019-04-19T12:16:37.715Z,2.73
2019-04-19T12:19:07.689Z,3.00
2019-04-19T12:21:45.209Z,3.00
2019-04-19T12:26:51.493Z,3.40
2019-04-19T12:29:30.185Z,3.93
2019-04-19T12:31:54.237Z,3.60
2019-04-19T12:34:23.845Z,3.63
2019-04-19T12:36:53.421Z,3.63
2019-04-19T12:39:23.212Z,3.33
2019-04-19T12:41:52.913Z,3.73
2019-04-19T12:44:22.904Z,3.20
2019-04-19T12:46:52.959Z,3.30
2019-04-19T12:49:22.731Z,3.53
2019-04-19T12:51:52.458Z,3.20
2019-04-19T12:54:22.156Z,3.27
2019-04-19T12:56:53.936Z,3.40
2019-04-19T12:59:24.758Z,3.53
2019-04-19T13:02:06.067Z,3.00
2019-04-19T13:04:40.266Z,3.23
2019-04-19T13:07:15.727Z,3.43
2019-04-19T13:09:46.757Z,3.50
2019-04-19T13:12:16.972Z,3.63
2019-04-19T13:14:49.093Z,3.50
2019-04-19T13:17:18.234Z,3.23
2019-04-19T13:20:01.422Z,3.23
2019-04-19T13:22:19.222Z,3.20
2019-04-19T13:24:50.102Z,3.80
2019-04-19T13:27:19.775Z,3.53
2019-04-19T13:29:49.988Z,3.20
2019-04-19T13:32:19.816Z,2.40
2019-04-19T13:34:49.551Z,2.80
2019-04-19T13:37:56.924Z,3.23
2019-04-19T13:40:48.972Z,3.20
2019-04-19T13:43:18.747Z,3.33
2019-04-19T13:45:48.533Z,5.13
2019-04-19T13:48:18.693Z,3.23
2019-04-19T13:50:49.996Z,2.80
2019-04-19T13:53:21.064Z,3.53
2019-04-19T13:55:51.263Z,2.90
2019-04-19T13:58:21.934Z,2.77
2019-04-19T14:00:54.447Z,3.33
2019-04-19T14:03:25.504Z,2.80
2019-04-19T14:05:55.249Z,3.33
2019-04-19T14:08:27.857Z,2.77
2019-04-19T14:10:57.098Z,2.67
2019-04-19T14:13:27.341Z,2.70
2019-04-19T14:15:56.991Z,2.87
2019-04-19T14:18:26.865Z,2.83
2019-04-19T14:20:57.602Z,2.80
2019-04-19T14:23:27.951Z,3.13
2019-04-19T14:25:59.279Z,3.00
2019-04-19T14:28:29.429Z,2.60
2019-04-19T14:31:02.902Z,3.00
2019-04-19T14:33:30.781Z,2.90
2019-04-19T14:36:00.355Z,2.80
2019-04-19T14:38:30.016Z,2.73
2019-04-19T14:40:59.724Z,2.97
2019-04-19T14:43:30.325Z,3.10
2019-04-19T14:46:00.236Z,2.60
2019-04-19T14:48:35.301Z,3.00
2019-04-19T14:51:07.567Z,3.40
2019-04-19T14:53:32.976Z,3.00
2019-04-19T14:56:02.817Z,2.90
2019-04-19T14:58:32.772Z,2.67
2019-04-19T15:01:19.663Z,2.60
2019-04-19T15:03:54.823Z,2.70
2019-04-19T15:06:25.715Z,2.70
2019-04-19T15:08:57.210Z,2.67
2019-04-19T15:11:27.617Z,2.63
2019-04-19T15:13:58.826Z,3.00
2019-04-19T15:16:28.723Z,3.00
2019-04-19T15:18:58.345Z,2.70
2019-04-19T15:21:28.049Z,3.10
2019-04-19T15:23:58.657Z,3.30
2019-04-19T15:26:28.957Z,3.40
2019-04-19T15:28:58.822Z,2.47
2019-04-19T15:31:28.435Z,2.43
2019-04-19T15:33:58.627Z,2.70
2019-04-19T15:36:28.318Z,3.00
2019-04-19T15:38:58.298Z,3.30
2019-04-19T15:41:28.203Z,2.97
2019-04-19T15:43:58.634Z,3.40
2019-04-19T15:46:29.561Z,3.00
2019-04-19T15:49:00.056Z,3.17
2019-04-19T15:51:35.536Z,3.00
2019-04-19T15:54:02.339Z,2.70
2019-04-19T15:56:32.360Z,2.90
2019-04-19T15:59:03.045Z,2.60
2019-04-19T16:01:55.849Z,2.73
2019-04-19T16:05:04.596Z,2.90
2019-04-19T16:07:44.093Z,2.80
2019-04-19T16:10:30.851Z,2.73
2019-04-19T16:13:00.588Z,2.90
2019-04-19T16:15:30.442Z,2.80
2019-04-19T16:18:00.442Z,2.80
2019-04-19T16:20:31.410Z,2.33
2019-04-19T16:23:02.447Z,2.37
2019-04-19T16:25:32.224Z,2.20
2019-04-19T16:28:03.207Z,2.23
2019-04-19T16:30:32.802Z,2.27
2019-04-19T16:33:03.670Z,2.70
2019-04-19T16:35:34.013Z,2.47
2019-04-19T16:38:03.678Z,2.30
2019-04-19T16:40:34.351Z,2.60
2019-04-19T16:43:04.044Z,2.40
2019-04-19T16:45:33.567Z,2.30
2019-04-19T16:48:04.259Z,3.53
2019-04-19T16:50:34.560Z,2.43
2019-04-19T16:53:06.359Z,2.60
2019-04-19T16:55:36.030Z,2.70
2019-04-19T16:58:06.313Z,2.80
2019-04-19T17:00:42.784Z,3.00
2019-04-19T17:03:14.021Z,3.10
2019-04-19T17:05:44.579Z,3.93
2019-04-19T17:08:15.561Z,2.90
2019-04-19T17:10:46.841Z,2.73
2019-04-19T17:13:16.971Z,2.60
2019-04-19T17:16:20.784Z,2.73
2019-04-19T17:19:03.833Z,2.70
2019-04-19T17:21:46.207Z,2.63
2019-04-19T17:24:05.031Z,2.50
2019-04-19T17:26:35.175Z,2.67
2019-04-19T17:29:06.557Z,2.83
2019-04-19T17:31:36.279Z,2.73
2019-04-19T17:34:06.606Z,2.60
2019-04-19T17:36:36.248Z,2.40
2019-04-19T17:39:08.760Z,2.57
2019-04-19T17:41:39.022Z,3.00
2019-04-19T17:44:08.664Z,2.50
2019-04-19T17:46:38.394Z,2.97
2019-04-19T17:49:08.666Z,2.93
2019-04-19T17:51:38.420Z,2.70
2019-04-19T17:54:09.733Z,2.93
2019-04-19T17:56:39.876Z,2.93
2019-04-19T17:59:10.099Z,2.90
2019-04-19T18:01:40.125Z,2.37
2019-04-19T18:04:09.772Z,2.35
2019-04-19T18:06:44.357Z,2.67
2019-04-19T18:09:15.875Z,2.50
2019-04-19T18:11:43.344Z,3.17
2019-04-19T18:14:13.817Z,3.20
2019-04-19T18:16:44.801Z,2.50
2019-04-19T18:19:22.248Z,2.70
2019-04-19T18:21:47.968Z,3.57
2019-04-19T18:24:25.847Z,2.90
2019-04-19T18:26:54.644Z,3.00
2019-04-19T18:29:26.665Z,2.47
2019-04-19T18:32:06.028Z,3.00
2019-04-19T18:34:43.789Z,3.33
2019-04-19T18:37:16.918Z,3.10
2019-04-19T18:39:45.448Z,3.17
2019-04-19T18:42:15.824Z,3.00
2019-04-19T18:44:49.919Z,3.00
2019-04-19T18:47:16.945Z,3.67
2019-04-19T18:49:47.664Z,2.60
2019-04-19T18:52:33.657Z,3.23
2019-04-19T18:54:57.740Z,3.20
2019-04-19T18:57:20.208Z,3.70
2019-04-19T18:59:54.954Z,3.83
2019-04-19T19:02:26.287Z,4.20
2019-04-19T19:04:59.413Z,3.60
2019-04-19T19:07:28.027Z,3.40
2019-04-19T19:10:01.849Z,3.07
2019-04-19T19:12:28.463Z,3.37
2019-04-19T19:15:02.297Z,4.63
2019-04-19T19:17:30.352Z,3.73
2019-04-19T19:20:06.597Z,4.87
2019-04-19T19:22:44.305Z,4.57
2019-04-19T19:25:20.681Z,3.50
2019-04-19T19:27:35.405Z,3.90
2019-04-19T19:30:06.872Z,3.17
2019-04-19T19:32:41.158Z,3.47
2019-04-19T19:35:14.524Z,3.30
2019-04-19T19:37:41.475Z,3.37
2019-04-19T19:40:19.749Z,3.10
2019-04-19T19:43:04.803Z,3.23
2019-04-19T19:45:36.678Z,3.10
2019-04-19T19:48:26.193Z,3.47
2019-04-19T19:51:03.344Z,3.90
2019-04-19T19:53:37.448Z,3.93
2019-04-19T19:56:02.974Z,3.77
2019-04-19T19:58:20.903Z,3.43
2019-04-19T20:01:01.780Z,3.90
2019-04-19T20:03:21.616Z,3.53
2019-04-19T20:05:44.582Z,3.73
2019-04-19T20:08:24.938Z,3.40
2019-04-19T20:10:49.513Z,4.23
2019-04-19T20:13:19.899Z,3.60
2019-04-19T20:15:50.908Z,3.80
2019-04-19T20:18:24.129Z,3.80
2019-04-19T20:20:52.456Z,4.20
2019-04-19T20:23:30.199Z,4.10
2019-04-19T20:26:07.364Z,4.00
2019-04-19T20:28:30.714Z,4.50
2019-04-19T20:31:00.709Z,4.00
2019-04-19T20:33:34.411Z,4.30
2019-04-19T20:36:03.445Z,3.43
2019-04-19T20:38:39.316Z,3.70
2019-04-19T20:41:05.714Z,3.90
2019-04-19T20:43:46.192Z,3.67
2019-04-19T20:46:11.871Z,3.70
2019-04-19T20:48:37.100Z,4.13
2019-04-19T20:51:15.643Z,3.90
2019-04-19T20:53:46.994Z,3.87
2019-04-19T20:56:48.127Z,3.90
2019-04-19T20:58:58.172Z,3.30
2019-04-19T21:01:28.633Z,3.90
2019-04-19T21:04:02.527Z,4.00
2019-04-19T21:06:33.574Z,3.90
2019-04-19T21:09:01.246Z,3.90
2019-04-19T21:11:36.986Z,3.83
2019-04-19T21:14:03.779Z,3.70
2019-04-19T21:16:35.378Z,3.90
2019-04-19T21:19:08.931Z,4.70
2019-04-19T21:21:41.000Z,4.73
2019-04-19T21:24:18.416Z,4.90
2019-04-19T21:26:49.232Z,4.20
2019-04-19T21:29:24.073Z,4.30
2019-04-19T21:31:54.197Z,4.47
2019-04-19T21:34:23.830Z,4.67
2019-04-19T21:36:59.688Z,4.17
2019-04-19T21:39:24.843Z,4.47
2019-04-19T21:42:00.204Z,3.63
2019-04-19T21:44:26.759Z,5.10
2019-04-19T21:47:01.675Z,4.47
2019-04-19T21:49:28.971Z,4.20
2019-04-19T21:52:05.355Z,4.97
2019-04-19T21:54:30.605Z,4.40
2019-04-19T21:57:00.498Z,4.40
2019-04-19T21:59:34.326Z,4.33
2019-04-19T22:02:01.596Z,4.60
2019-04-19T22:04:35.185Z,5.10
2019-04-19T22:07:05.973Z,4.30
2019-04-19T22:09:34.430Z,4.50
2019-04-19T22:12:04.514Z,4.97
2019-04-19T22:14:34.369Z,4.10
2019-04-19T22:17:05.442Z,3.97
2019-04-19T22:19:37.453Z,5.17
2019-04-19T22:22:09.110Z,4.30
2019-04-19T22:24:40.764Z,4.13
2019-04-19T22:27:09.704Z,4.30
2019-04-19T22:29:39.749Z,4.30
2019-04-19T22:32:14.859Z,5.00
2019-04-19T22:34:42.093Z,4.57
2019-04-19T22:37:16.114Z,5.23
2019-04-19T22:39:43.539Z,4.57
2019-04-19T22:42:13.411Z,5.37
2019-04-19T22:44:44.877Z,4.57
2019-04-19T22:47:17.084Z,5.00
2019-04-19T22:49:47.334Z,4.20
2019-04-19T22:52:17.085Z,4.27
2019-04-19T22:54:47.013Z,5.13
2019-04-19T22:57:22.013Z,4.87
2019-04-19T22:59:56.375Z,4.80
2019-04-19T23:02:44.754Z,4.73
2019-04-19T23:05:14.849Z,5.27
2019-04-19T23:07:48.963Z,4.40
2019-04-19T23:10:16.702Z,4.70
2019-04-19T23:12:47.617Z,4.70
2019-04-19T23:15:23.286Z,4.30
2019-04-19T23:17:48.725Z,4.47
2019-04-19T23:20:22.923Z,4.70
2019-04-19T23:22:51.165Z,4.90
2019-04-19T23:25:28.582Z,4.93
2019-04-19T23:28:04.320Z,5.37
2019-04-19T23:30:30.459Z,4.50
2019-04-19T23:33:00.067Z,5.23
2019-04-19T23:35:33.757Z,4.60
2019-04-19T23:38:01.034Z,4.73
2019-04-19T23:40:34.015Z,4.97
2019-04-19T23:43:02.183Z,5.13
2019-04-19T23:45:38.310Z,5.17
2019-04-19T23:48:04.639Z,4.83
2019-04-19T23:50:39.107Z,4.93
2019-04-19T23:53:06.275Z,5.13
2019-04-19T23:55:36.255Z,5.37
2019-04-19T23:58:06.274Z,5.30
